Time;durP1;ratioP1;P1;durP2;ratioP2;P2;SDS_P1;SDS_P2;PMS_P1;PMS_P2;Temp;Humidity;BMP_temperature;BMP_pressure;BME280_temperature;BME280_humidity;BME280_pressure;Samples;Min_cycle;Max_cycle;Signal;HPM_P1;HPM_P2
2021/05/14 00:01:55;;;;;;;85.72;46.20;;;;;;;9.36;100.00;100627.56;5104229;28;20032;-63
2021/05/14 00:04:21;;;;;;;85.97;46.15;;;;;;;9.32;100.00;100625.75;5104689;28;20019;-62
2021/05/14 00:06:47;;;;;;;84.47;45.60;;;;;;;9.31;100.00;100612.56;5103238;28;20489;-79
2021/05/14 00:09:13;;;;;;;84.10;46.22;;;;;;;9.24;100.00;100619.53;5105432;28;20102;-80
2021/05/14 00:11:39;;;;;;;88.97;47.40;;;;;;;9.20;100.00;100616.03;5102000;28;20085;-80
2021/05/14 00:14:05;;;;;;;85.03;45.45;;;;;;;9.15;100.00;100616.88;5105402;28;20030;-71
2021/05/14 00:16:30;;;;;;;87.20;46.33;;;;;;;9.14;100.00;100612.44;5102911;28;20102;-80
2021/05/14 00:18:55;;;;;;;82.85;45.65;;;;;;;9.13;100.00;100616.84;5103884;28;20065;-80
2021/05/14 00:21:21;;;;;;;88.18;48.00;;;;;;;9.08;100.00;100608.00;5103903;28;20047;-81
2021/05/14 00:23:46;;;;;;;85.30;47.58;;;;;;;9.11;100.00;100612.44;5102522;28;20024;-77
2021/05/14 00:26:11;;;;;;;83.15;45.58;;;;;;;9.02;100.00;100614.13;5105368;28;20106;-73
2021/05/14 00:28:37;;;;;;;79.07;45.33;;;;;;;9.00;100.00;100613.25;5101699;28;20429;-63
2021/05/14 00:31:02;;;;;;;86.97;47.22;;;;;;;8.93;100.00;100615.81;5104814;28;20028;-80
2021/05/14 00:33:28;;;;;;;87.97;48.47;;;;;;;8.87;100.00;100614.03;5102855;27;20046;-78
2021/05/14 00:35:53;;;;;;;81.38;46.13;;;;;;;8.76;100.00;100618.31;5103470;28;20030;-71
2021/05/14 00:38:18;;;;;;;88.45;48.38;;;;;;;8.73;100.00;100614.78;5104230;28;20466;-63
2021/05/14 00:40:44;;;;;;;85.55;47.40;;;;;;;8.70;100.00;100604.22;5101732;28;20348;-64
2021/05/14 00:43:09;;;;;;;84.75;46.92;;;;;;;8.66;100.00;100610.31;5105227;28;20080;-63
2021/05/14 00:45:35;;;;;;;77.93;45.10;;;;;;;8.66;100.00;100615.59;5101946;28;20034;-69
2021/05/14 00:48:00;;;;;;;77.35;44.55;;;;;;;8.64;100.00;100608.56;5104073;28;20031;-70
2021/05/14 00:50:25;;;;;;;83.10;45.70;;;;;;;8.57;100.00;100612.88;5102945;28;20064;-76
2021/05/14 00:52:51;;;;;;;75.25;44.65;;;;;;;8.52;100.00;100604.09;5101373;28;20123;-74
2021/05/14 00:55:16;;;;;;;71.82;41.55;;;;;;;8.50;100.00;100611.97;5103913;28;20038;-76
2021/05/14 00:57:42;;;;;;;66.22;40.25;;;;;;;8.41;100.00;100610.97;5101383;28;20471;-74
2021/05/14 01:00:08;;;;;;;67.10;39.50;;;;;;;8.49;100.00;100601.38;5104199;28;20030;-76
2021/05/14 01:02:34;;;;;;;57.53;35.75;;;;;;;8.41;100.00;100605.69;5101445;28;20120;-76
2021/05/14 01:04:59;;;;;;;57.78;35.97;;;;;;;8.26;100.00;100607.31;5104105;28;20136;-76
2021/05/14 01:07:25;;;;;;;56.50;34.85;;;;;;;8.30;100.00;100611.75;5103148;28;20016;-74
2021/05/14 01:09:51;;;;;;;59.58;37.67;;;;;;;8.29;100.00;100612.59;5102158;28;20063;-76
2021/05/14 01:12:16;;;;;;;55.40;34.85;;;;;;;8.25;100.00;100610.78;5104157;28;20032;-76
2021/05/14 01:14:42;;;;;;;56.65;36.08;;;;;;;8.11;100.00;100609.75;5101018;28;20058;-74
2021/05/14 01:17:07;;;;;;;54.42;34.25;;;;;;;8.08;100.00;100609.75;5104674;28;20115;-74
2021/05/14 01:19:33;;;;;;;52.60;33.72;;;;;;;7.95;100.00;100612.25;5101893;28;20024;-76
2021/05/14 01:21:59;;;;;;;50.92;32.38;;;;;;;7.87;100.00;100606.00;5103184;28;20031;-77
2021/05/14 01:24:24;;;;;;;54.47;32.67;;;;;;;7.86;100.00;100614.75;5103245;28;20039;-77
2021/05/14 01:26:49;;;;;;;56.92;36.10;;;;;;;7.83;100.00;100617.34;5101910;28;20024;-73
2021/05/14 01:29:15;;;;;;;69.60;41.80;;;;;;;7.90;100.00;100613.94;5104048;28;20034;-71
2021/05/14 01:31:40;;;;;;;62.85;40.58;;;;;;;7.86;100.00;100614.75;5101500;28;20024;-72
2021/05/14 01:34:07;;;;;;;70.65;43.20;;;;;;;7.78;100.00;100613.81;5104267;28;20470;-76
2021/05/14 01:36:38;;;;;;;71.53;43.03;;;;;;;7.69;100.00;100614.56;5101537;28;20085;-76
2021/05/14 01:39:08;;;;;;;66.47;40.65;;;;;;;7.64;100.00;100616.25;5104069;28;20024;-77
2021/05/14 01:41:34;;;;;;;74.60;44.08;;;;;;;7.60;100.00;100612.72;5101247;28;20031;-81
2021/05/14 01:44:00;;;;;;;73.15;43.20;;;;;;;7.64;100.00;100611.84;5103260;28;20378;-80
2021/05/14 01:46:25;;;;;;;78.63;46.38;;;;;;;7.61;100.00;100611.81;5102542;28;20115;-81
2021/05/14 01:48:51;;;;;;;60.25;38.22;;;;;;;7.54;100.00;100615.22;5102040;28;20111;-81
2021/05/14 01:51:18;;;;;;;61.58;38.30;;;;;;;7.54;100.00;100611.72;5103465;28;20064;-81
2021/05/14 01:53:43;;;;;;;59.42;37.05;;;;;;;7.58;100.00;100617.03;5101106;28;20036;-80
2021/05/14 01:56:09;;;;;;;71.40;42.67;;;;;;;7.58;100.00;100614.41;5104121;28;20043;-80
2021/05/14 01:58:34;;;;;;;71.38;41.90;;;;;;;7.66;100.00;100609.28;5101450;28;20037;-80
2021/05/14 02:01:00;;;;;;;60.65;38.72;;;;;;;7.65;100.00;100611.00;5103380;28;20017;-74
2021/05/14 02:03:25;;;;;;;69.15;42.22;;;;;;;7.67;100.00;100616.28;5102259;28;20033;-81
2021/05/14 02:05:50;;;;;;;69.40;43.08;;;;;;;7.67;100.00;100611.03;5102033;28;20032;-77
2021/05/14 02:08:16;;;;;;;67.82;42.40;;;;;;;7.68;100.00;100604.91;5104126;28;20126;-77
2021/05/14 02:10:41;;;;;;;61.92;38.92;;;;;;;7.67;100.00;100611.91;5100566;28;20016;-80
2021/05/14 02:13:06;;;;;;;62.60;38.95;;;;;;;7.61;100.00;100606.56;5106799;28;20030;-77
2021/05/14 02:15:32;;;;;;;56.25;35.58;;;;;;;7.50;100.00;100608.19;5105228;28;20043;-77
2021/05/14 02:17:58;;;;;;;58.22;36.67;;;;;;;7.48;100.00;100615.16;5106501;28;20084;-78
2021/05/14 02:20:24;;;;;;;59.63;36.15;;;;;;;7.43;100.00;100612.47;5106293;28;20024;-73
2021/05/14 02:22:49;;;;;;;59.75;37.08;;;;;;;7.36;100.00;100615.00;5105434;28;20427;-79
2021/05/14 02:25:14;;;;;;;60.13;38.08;;;;;;;7.29;100.00;100611.41;5107342;28;20095;-63
2021/05/14 02:27:40;;;;;;;55.20;35.47;;;;;;;7.26;100.00;100616.63;5104074;28;20093;-63
2021/05/14 02:30:06;;;;;;;49.90;31.00;;;;;;;7.12;100.00;100611.16;5107144;28;20352;-63
2021/05/14 02:32:32;;;;;;;54.35;33.28;;;;;;;7.11;100.00;100609.41;5104871;28;20034;-63
2021/05/14 02:34:57;;;;;;;56.15;35.85;;;;;;;7.17;100.00;100609.47;5106276;28;20024;-63
2021/05/14 02:37:22;;;;;;;49.60;32.25;;;;;;;7.12;100.00;100613.78;5106257;28;20019;-63
2021/05/14 02:39:48;;;;;;;50.58;32.75;;;;;;;7.07;100.00;100610.22;5104552;28;20517;-63
2021/05/14 02:42:14;;;;;;;52.53;33.70;;;;;;;7.03;100.00;100611.03;5107191;28;20043;-63
2021/05/14 02:44:39;;;;;;;53.65;33.55;;;;;;;7.05;100.00;100610.19;5103880;28;20837;-63
2021/05/14 02:47:05;;;;;;;53.45;33.53;;;;;;;6.85;100.00;100612.50;5106981;28;20034;-63
2021/05/14 02:49:30;;;;;;;50.95;32.47;;;;;;;6.78;100.00;100610.63;5104835;28;20016;-63
2021/05/14 02:51:56;;;;;;;55.17;35.38;;;;;;;6.74;100.00;100608.81;5105398;28;20048;-63
2021/05/14 02:54:21;;;;;;;52.67;34.22;;;;;;;6.72;100.00;100608.78;5105810;28;20103;-63
2021/05/14 02:56:46;;;;;;;53.53;33.65;;;;;;;6.71;100.00;100612.25;5104501;28;20020;-63
2021/05/14 02:59:12;;;;;;;53.55;33.63;;;;;;;6.65;100.00;100611.28;5106904;28;20035;-63
2021/05/14 03:01:37;;;;;;;52.28;33.08;;;;;;;6.60;100.00;100605.97;5103648;28;20028;-63
2021/05/14 03:04:04;;;;;;;54.47;33.72;;;;;;;6.54;100.00;100612.00;5106085;28;20031;-63
2021/05/14 03:06:31;;;;;;;53.63;34.47;;;;;;;6.49;100.00;100610.16;5104582;28;20023;-63
2021/05/14 03:08:56;;;;;;;53.08;33.13;;;;;;;6.50;100.00;100598.81;5105294;28;20437;-63
2021/05/14 03:11:21;;;;;;;51.95;32.70;;;;;;;6.50;100.00;100598.81;5105511;28;20019;-63
2021/05/14 03:13:47;;;;;;;55.47;34.10;;;;;;;6.49;100.00;100603.16;5103662;28;20027;-63
2021/05/14 03:16:12;;;;;;;55.15;34.50;;;;;;;6.36;100.00;100596.78;5107061;28;20023;-63
2021/05/14 03:18:37;;;;;;;50.83;33.15;;;;;;;6.31;100.00;100600.22;5103211;28;20063;-63
2021/05/14 03:21:03;;;;;;;52.70;32.03;;;;;;;6.24;100.00;100599.22;5105794;28;20077;-62
2021/05/14 03:23:28;;;;;;;86.93;37.90;;;;;;;6.10;100.00;100604.19;5103971;28;20130;-63
2021/05/14 03:25:53;;;;;;;83.25;36.45;;;;;;;6.13;100.00;100598.13;5104277;28;20069;-62
2021/05/14 03:28:19;;;;;;;62.53;34.33;;;;;;;6.10;100.00;100604.19;5105530;28;20031;-63
2021/05/14 03:30:44;;;;;;;57.47;33.65;;;;;;;6.07;100.00;100602.41;5103059;28;20024;-63
2021/05/14 03:33:10;;;;;;;52.80;33.25;;;;;;;6.06;100.00;100595.41;5106295;28;20466;-63
2021/05/14 03:35:36;;;;;;;55.20;35.63;;;;;;;6.15;100.00;100592.06;5103358;28;20032;-62
2021/05/14 03:38:01;;;;;;;55.20;35.85;;;;;;;6.18;100.00;100594.72;5105360;28;20031;-64
2021/05/14 03:42:56;;;;;;;52.88;34.17;;;;;;;6.17;100.00;100599.97;5104211;28;20039;-62
2021/05/14 03:45:21;;;;;;;53.53;33.97;;;;;;;6.15;100.00;100596.44;5105314;28;20068;-62
2021/05/14 03:47:47;;;;;;;50.55;32.67;;;;;;;6.19;100.00;100593.88;5103136;28;20028;-62
2021/05/14 03:50:13;;;;;;;48.13;31.45;;;;;;;6.23;100.00;100597.44;5106159;28;20027;-63
2021/05/14 03:52:39;;;;;;;47.50;30.75;;;;;;;6.30;100.00;100594.06;5102741;28;20225;-62
2021/05/14 03:55:05;;;;;;;48.25;31.20;;;;;;;6.28;100.00;100594.03;5105511;28;20103;-62
2021/05/14 03:57:31;;;;;;;48.40;30.92;;;;;;;6.28;100.00;100593.16;5103458;28;20023;-63
2021/05/14 03:59:56;;;;;;;50.22;31.88;;;;;;;6.27;100.00;100602.75;5103965;28;20509;-62
2021/05/14 04:02:21;;;;;;;49.05;31.50;;;;;;;6.26;100.00;100595.78;5104432;28;20027;-62
2021/05/14 04:04:47;;;;;;;47.55;30.00;;;;;;;6.32;100.00;100596.72;5103159;28;20030;-62
2021/05/14 04:07:13;;;;;;;51.67;33.78;;;;;;;6.26;100.00;100601.03;5105811;28;20483;-62
2021/05/14 04:09:39;;;;;;;46.05;28.95;;;;;;;6.24;100.00;100597.47;5102410;28;20032;-62
2021/05/14 04:14:48;;;;;;;86.85;32.85;;;;;;;6.27;100.00;100608.00;5100118;28;20035;-62
2021/05/14 04:17:14;;;;;;;63.90;35.25;;;;;;;6.29;100.00;100615.91;5105411;28;20027;-62
2021/05/14 04:19:39;;;;;;;53.75;34.00;;;;;;;6.24;100.00;100617.59;5097750;28;20126;-62
2021/05/14 04:22:06;;;;;;;48.85;31.35;;;;;;;6.24;100.00;100613.22;5104784;28;20110;-62
2021/05/14 04:24:31;;;;;;;52.60;33.85;;;;;;;6.14;100.00;100616.53;5102896;28;20019;-62
2021/05/14 04:26:58;;;;;;;54.13;33.33;;;;;;;6.17;100.00;100623.59;5103442;28;20524;-62
2021/05/14 04:29:24;;;;;;;50.97;33.42;;;;;;;6.22;100.00;100625.44;5104370;28;20028;-62
2021/05/14 04:31:49;;;;;;;55.97;34.88;;;;;;;6.35;100.00;100620.41;5102515;28;20028;-62
2021/05/14 04:34:17;;;;;;;57.85;36.78;;;;;;;6.46;100.00;100621.47;5105279;28;20031;-62
2021/05/14 04:36:43;;;;;;;59.92;36.85;;;;;;;6.49;100.00;100615.41;5100962;28;20027;-62
2021/05/14 04:39:09;;;;;;;54.58;34.13;;;;;;;6.51;100.00;100619.84;5104895;28;20020;-62
2021/05/14 04:41:36;;;;;;;57.47;36.63;;;;;;;6.47;100.00;100623.25;5102316;28;20039;-68
2021/05/14 04:44:02;;;;;;;56.63;35.30;;;;;;;6.54;100.00;100614.63;5104099;28;20023;-67
2021/05/14 04:46:28;;;;;;;57.80;36.63;;;;;;;6.58;100.00;100619.09;5102933;28;20473;-76
2021/05/14 04:48:54;;;;;;;57.15;36.00;;;;;;;6.56;100.00;100620.78;5102622;28;20030;-79
2021/05/14 04:51:20;;;;;;;55.60;34.78;;;;;;;6.63;100.00;100611.28;5104219;28;20054;-80
2021/05/14 04:53:46;;;;;;;58.05;36.20;;;;;;;6.67;100.00;100617.44;5101663;28;20036;-73
2021/05/14 04:56:14;;;;;;;58.45;37.17;;;;;;;6.70;100.00;100625.38;5105298;28;20028;-81
2021/05/14 04:58:41;;;;;;;58.08;36.92;;;;;;;6.81;100.00;100623.81;5097325;28;20024;-79
2021/05/14 05:01:07;;;;;;;58.83;37.05;;;;;;;6.83;100.00;100629.09;5104493;28;20080;-81
2021/05/14 05:03:32;;;;;;;61.60;37.78;;;;;;;6.88;100.00;100623.06;5102255;28;20032;-79
2021/05/14 05:05:58;;;;;;;58.88;37.33;;;;;;;6.91;100.00;100633.63;5103134;28;20024;-80
2021/05/14 05:08:23;;;;;;;59.70;38.47;;;;;;;7.03;100.00;100627.66;5103372;28;20500;-80
2021/05/14 05:10:48;;;;;;;59.85;37.67;;;;;;;7.14;100.00;100641.00;5101907;28;20035;-81
2021/05/14 05:13:15;;;;;;;58.65;36.65;;;;;;;7.20;100.00;100641.06;5104620;28;20027;-79
2021/05/14 05:15:41;;;;;;;59.22;37.25;;;;;;;7.25;100.00;100643.75;5096998;28;20152;-80
2021/05/14 05:18:06;;;;;;;58.40;36.42;;;;;;;7.33;100.00;100637.75;5104665;28;20445;-76
2021/05/14 05:20:31;;;;;;;61.03;38.80;;;;;;;7.40;100.00;100643.13;5102190;28;20103;-81
2021/05/14 05:22:57;;;;;;;61.42;38.60;;;;;;;7.62;100.00;100650.44;5102625;28;20028;-80
2021/05/14 05:25:22;;;;;;;60.95;38.20;;;;;;;7.81;100.00;100655.94;5103906;28;20099;-77
2021/05/14 05:27:47;;;;;;;63.70;39.53;;;;;;;7.93;100.00;100645.56;5101627;28;20405;-80
2021/05/14 05:30:13;;;;;;;65.82;40.65;;;;;;;8.05;100.00;100643.94;5104412;28;20485;-62
2021/05/14 05:32:39;;;;;;;65.90;40.70;;;;;;;8.15;100.00;100646.69;5101017;28;20036;-62
2021/05/14 05:35:05;;;;;;;66.82;40.30;;;;;;;8.25;100.00;100644.16;5103616;28;20026;-62
2021/05/14 05:37:30;;;;;;;69.10;41.53;;;;;;;8.49;100.00;100646.19;5100879;28;20036;-63
2021/05/14 05:39:55;;;;;;;79.45;43.55;;;;;;;8.66;100.00;100647.22;5101676;28;20055;-64
2021/05/14 05:42:21;;;;;;;102.43;48.58;;;;;;;8.77;100.00;100643.81;5097226;28;20536;-65
2021/05/14 05:44:46;;;;;;;112.55;49.65;;;;;;;8.85;100.00;100652.66;5093149;28;20081;-64
2021/05/14 05:47:11;;;;;;;96.97;48.63;;;;;;;9.02;100.00;100651.03;5087975;28;20020;-63
2021/05/14 05:49:37;;;;;;;106.72;48.10;;;;;;;9.20;100.00;100652.03;5092219;28;20068;-62
2021/05/14 05:52:02;;;;;;;154.10;47.08;;;;;;;9.22;100.00;100648.56;5092183;28;20040;-63
2021/05/14 05:54:27;;;;;;;156.15;44.85;;;;;;;9.13;100.00;100648.50;5096383;28;20050;-63
2021/05/14 05:56:57;;;;;;;141.65;45.90;;;;;;;9.12;100.00;100643.22;5095247;28;20054;-63
2021/05/14 05:59:22;;;;;;;101.90;44.85;;;;;;;9.13;100.00;100655.50;5099285;28;20031;-63
2021/05/14 06:01:49;;;;;;;97.90;44.13;;;;;;;9.20;100.00;100659.97;5091072;28;20379;-63
2021/05/14 06:04:14;;;;;;;112.90;46.97;;;;;;;9.22;100.00;100655.59;5089600;28;20016;-63
2021/05/14 06:06:39;;;;;;;91.90;44.40;;;;;;;9.25;100.00;100655.63;5089921;28;20130;-63
2021/05/14 06:09:05;;;;;;;91.30;44.17;;;;;;;9.30;100.00;100653.88;5097162;28;20012;-64
2021/05/14 06:11:30;;;;;;;81.03;43.17;;;;;;;9.31;100.00;100653.00;5096305;28;20027;-63
2021/05/14 06:13:56;;;;;;;86.38;44.03;;;;;;;9.22;100.00;100655.59;5090601;28;20474;-63
2021/05/14 06:16:21;;;;;;;90.45;45.92;;;;;;;9.32;100.00;100660.06;5089851;28;20063;-65
2021/05/14 06:18:52;;;;;;;82.85;43.30;;;;;;;9.45;100.00;100668.03;5092253;28;20100;-65
2021/05/14 06:21:17;;;;;;;84.55;44.80;;;;;;;9.59;100.00;100661.09;5090360;28;20035;-65
2021/05/14 06:23:43;;;;;;;82.45;42.22;;;;;;;9.80;98.39;100668.25;5091687;28;20020;-65
2021/05/14 06:26:08;;;;;;;78.90;41.65;;;;;;;9.99;96.09;100677.13;5088821;28;20024;-65
2021/05/14 06:28:34;;;;;;;73.18;40.45;;;;;;;10.07;94.64;100678.03;5085536;28;20025;-64
2021/05/14 06:30:59;;;;;;;77.22;41.50;;;;;;;10.16;94.71;100673.66;5096551;28;20055;-65
2021/05/14 06:33:27;;;;;;;71.72;39.20;;;;;;;10.20;92.99;100678.09;5086564;28;20111;-65
2021/05/14 06:35:52;;;;;;;76.85;41.67;;;;;;;10.26;93.14;100671.03;5094379;28;20114;-63
2021/05/14 06:38:17;;;;;;;74.28;41.00;;;;;;;10.17;92.37;100680.72;5086475;28;20597;-64
2021/05/14 06:40:43;;;;;;;74.75;41.03;;;;;;;10.19;92.84;100674.53;5090220;28;20034;-66
2021/05/14 06:43:08;;;;;;;80.00;41.78;;;;;;;10.33;92.42;100677.22;5090668;28;20085;-66
2021/05/14 06:45:34;;;;;;;76.40;42.13;;;;;;;10.29;92.38;100670.16;5090654;28;20447;-64
2021/05/14 06:48:07;;;;;;;76.97;42.28;;;;;;;10.42;93.14;100676.41;5093274;28;20027;-64
2021/05/14 06:50:33;;;;;;;84.35;44.75;;;;;;;10.53;93.59;100679.06;5096958;28;20025;-65
2021/05/14 06:53:01;;;;;;;86.03;45.45;;;;;;;10.64;94.31;100687.91;5093018;28;20513;-64
2021/05/14 06:55:26;;;;;;;80.68;43.42;;;;;;;10.69;93.01;100680.88;5094178;28;20019;-66
2021/05/14 06:57:51;;;;;;;81.55;44.50;;;;;;;10.77;91.81;100683.50;5090229;28;20541;-66
2021/05/14 07:00:18;;;;;;;84.45;44.05;;;;;;;10.79;91.93;100680.00;5089328;28;20031;-66
2021/05/14 07:02:46;;;;;;;87.10;44.65;;;;;;;10.86;90.45;100682.63;5095431;28;20102;-64
2021/05/14 07:05:14;;;;;;;87.38;42.42;;;;;;;10.74;88.67;100683.50;5093140;28;20508;-66
2021/05/14 07:07:39;;;;;;;85.10;44.33;;;;;;;10.85;89.21;100680.88;5093477;28;20386;-66
2021/05/14 07:10:05;;;;;;;86.78;43.92;;;;;;;11.03;89.22;100680.00;5093989;28;20030;-64
2021/05/14 07:12:30;;;;;;;91.40;44.22;;;;;;;11.18;86.91;100684.41;5094399;28;20028;-64
2021/05/14 07:14:56;;;;;;;61.95;30.42;;;;;;;11.23;81.04;100682.66;5095622;28;20104;-62
2021/05/14 07:17:21;;;;;;;60.70;32.55;;;;;;;11.32;81.21;100685.28;5092825;28;20051;-61
2021/05/14 07:19:47;;;;;;;64.65;35.20;;;;;;;11.43;81.09;100690.53;5093643;28;20022;-61
2021/05/14 07:22:12;;;;;;;75.50;38.92;;;;;;;11.63;81.76;100685.22;5092385;28;20051;-63
2021/05/14 07:24:37;;;;;;;70.07;35.45;;;;;;;11.76;79.95;100686.06;5092998;28;20020;-63
2021/05/14 07:27:03;;;;;;;71.70;36.90;;;;;;;11.77;79.93;100688.72;5093036;28;20023;-62
2021/05/14 07:29:28;;;;;;;61.38;32.55;;;;;;;11.93;78.61;100681.63;5092853;28;20383;-62
2021/05/14 07:31:53;;;;;;;61.10;34.28;;;;;;;12.10;78.26;100694.81;5091548;28;20494;-64
2021/05/14 07:34:18;;;;;;;51.05;26.85;;;;;;;12.12;73.01;100692.16;5092596;28;20044;-63
2021/05/14 07:36:44;;;;;;;54.63;28.08;;;;;;;12.26;73.38;100692.97;5092304;28;20186;-61
2021/05/14 07:39:09;;;;;;;50.10;26.63;;;;;;;12.26;73.41;100702.66;5093007;28;20024;-62
2021/05/14 07:41:34;;;;;;;50.08;25.98;;;;;;;12.31;71.04;100698.25;5093359;28;20024;-62
2021/05/14 07:44:00;;;;;;;45.17;23.98;;;;;;;12.57;70.13;100695.44;5093833;28;20024;-62
2021/05/14 07:46:25;;;;;;;45.55;23.58;;;;;;;12.68;71.22;100695.38;5092781;28;20020;-62
2021/05/14 07:48:51;;;;;;;47.67;24.52;;;;;;;12.82;69.57;100698.81;5094157;28;20025;-62
2021/05/14 07:51:16;;;;;;;41.05;21.02;;;;;;;12.91;66.59;100701.38;5090900;28;20044;-62
2021/05/14 07:53:41;;;;;;;43.08;22.05;;;;;;;13.00;66.32;100703.06;5091940;28;20028;-62
2021/05/14 07:56:08;;;;;;;40.75;21.67;;;;;;;13.02;64.97;100700.44;5093363;28;20039;-62
2021/05/14 07:58:33;;;;;;;43.72;24.38;;;;;;;13.06;67.30;100703.06;5091110;28;20016;-62
2021/05/14 08:00:59;;;;;;;44.72;24.60;;;;;;;13.01;66.90;100698.66;5093332;28;20031;-62
2021/05/14 08:03:24;;;;;;;43.85;22.90;;;;;;;13.10;65.43;100695.94;5091300;28;20028;-62
2021/05/14 08:05:50;;;;;;;40.35;21.50;;;;;;;13.19;63.83;100695.88;5096864;28;20165;-62
2021/05/14 08:08:18;;;;;;;42.20;22.90;;;;;;;13.38;64.39;100696.63;5102106;28;20027;-62
2021/05/14 08:10:44;;;;;;;42.22;22.38;;;;;;;13.55;64.47;100700.88;5105094;28;20020;-62
2021/05/14 08:13:09;;;;;;;42.22;22.50;;;;;;;13.89;63.02;100697.84;5097777;28;20032;-62
2021/05/14 08:15:35;;;;;;;41.38;23.58;;;;;;;14.13;62.69;100699.31;5104657;28;20489;-62
2021/05/14 08:18:00;;;;;;;43.17;23.77;;;;;;;14.32;59.78;100701.75;5103032;28;20026;-62
2021/05/14 08:20:26;;;;;;;39.60;22.08;;;;;;;14.41;58.33;100701.63;5103509;28;20467;-66
2021/05/14 08:22:52;;;;;;;43.63;24.25;;;;;;;14.59;58.57;100698.72;5103963;28;20041;-68
2021/05/14 08:25:18;;;;;;;39.67;23.27;;;;;;;14.50;54.29;100701.47;5102258;28;20035;-67
2021/05/14 08:27:44;;;;;;;40.78;23.92;;;;;;;14.41;56.49;100705.16;5105392;28;20153;-68
2021/05/14 08:30:11;;;;;;;38.10;22.10;;;;;;;14.43;56.01;100713.09;5097541;28;20055;-69
2021/05/14 08:32:37;;;;;;;41.78;22.73;;;;;;;14.72;56.73;100709.19;5104780;28;20026;-69
2021/05/14 08:35:04;;;;;;;42.33;22.83;;;;;;;14.91;58.50;100701.78;5102694;28;20023;-70
2021/05/14 08:37:30;;;;;;;40.15;22.63;;;;;;;15.12;57.28;100700.59;5103694;28;20031;-69
2021/05/14 08:39:55;;;;;;;42.15;23.30;;;;;;;15.07;56.29;100699.75;5103743;28;20027;-69
2021/05/14 08:42:21;;;;;;;41.65;22.02;;;;;;;15.14;58.49;100702.31;5102712;28;20036;-68
2021/05/14 08:44:46;;;;;;;40.60;22.40;;;;;;;15.35;57.81;100708.19;5104774;28;20028;-68
2021/05/14 08:47:12;;;;;;;40.95;21.95;;;;;;;15.59;57.09;100706.84;5101519;28;20095;-69
2021/05/14 08:49:38;;;;;;;43.15;22.73;;;;;;;15.59;55.70;100712.16;5105202;28;20504;-69
2021/05/14 08:52:07;;;;;;;40.30;21.25;;;;;;;15.49;55.81;100710.59;5100091;28;20047;-70
2021/05/14 08:54:34;;;;;;;44.03;22.50;;;;;;;15.32;58.07;100708.25;5104081;28;20058;-70
2021/05/14 08:57:00;;;;;;;42.60;22.42;;;;;;;15.10;55.69;100708.59;5102696;28;20020;-65
2021/05/14 08:59:25;;;;;;;42.20;22.75;;;;;;;15.11;56.05;100705.00;5101353;28;20073;-67
2021/05/14 09:01:50;;;;;;;43.08;23.70;;;;;;;15.47;56.65;100713.28;5102340;28;20355;-62
2021/05/14 09:04:18;;;;;;;44.17;23.33;;;;;;;15.64;54.20;100712.06;5102217;28;20035;-62
2021/05/14 09:06:45;;;;;;;42.00;23.33;;;;;;;15.58;53.93;100710.44;5103064;28;20055;-62
2021/05/14 09:09:14;;;;;;;42.45;23.08;;;;;;;15.75;52.69;100706.56;5102410;28;20025;-62
2021/05/14 09:11:48;;;;;;;44.15;24.05;;;;;;;16.11;54.04;100709.44;5103813;28;20035;-62
2021/05/14 09:14:47;;;;;;;42.33;22.15;;;;;;;16.34;52.70;100706.28;5103538;28;20039;-62
2021/05/14 09:17:16;;;;;;;41.75;23.10;;;;;;;16.24;53.48;100710.03;5102181;28;20077;-62
2021/05/14 09:19:44;;;;;;;42.97;23.77;;;;;;;16.20;51.19;100720.78;5100705;28;20024;-62
2021/05/14 09:22:18;;;;;;;44.97;25.98;;;;;;;16.37;51.32;100708.88;5103568;28;20474;-62
2021/05/14 09:24:47;;;;;;;42.15;23.85;;;;;;;16.73;49.50;100714.28;5108625;28;20493;-63
2021/05/14 09:27:18;;;;;;;40.30;21.52;;;;;;;16.90;47.31;100708.59;5105578;28;20073;-62
2021/05/14 09:29:47;;;;;;;43.75;22.60;;;;;;;16.91;48.84;100705.03;5108280;28;20384;-62
2021/05/14 09:32:30;;;;;;;36.83;19.63;;;;;;;17.06;49.75;100707.28;5105743;28;20398;-62
2021/05/14 09:34:58;;;;;;;34.08;17.60;;;;;;;17.30;46.61;100696.94;5101145;28;20111;-62
2021/05/14 09:37:25;;;;;;;33.60;16.48;;;;;;;17.67;46.37;100701.28;5105026;28;20023;-62
2021/05/14 09:40:18;;;;;;;34.85;16.73;;;;;;;18.06;46.16;100706.47;5107220;28;20048;-62
2021/05/14 09:42:45;;;;;;;36.03;17.90;;;;;;;18.70;44.43;100700.09;5057378;28;20044;-62
2021/05/14 09:45:21;;;;;;;31.50;15.20;;;;;;;19.85;41.28;100705.22;5063964;28;20127;-62
2021/05/14 09:48:18;;;;;;;30.52;15.07;;;;;;;21.92;39.12;100702.25;5064940;28;20587;-62
2021/05/14 09:50:45;;;;;;;25.38;10.30;;;;;;;22.41;28.79;100699.09;4976108;28;20042;-63
2021/05/14 09:53:15;;;;;;;27.60;10.52;;;;;;;22.59;29.96;100706.31;4986441;28;20047;-62
2021/05/14 09:55:50;;;;;;;25.70;9.70;;;;;;;22.46;28.25;100702.47;4983301;28;20542;-63
2021/05/14 09:58:22;;;;;;;27.25;9.43;;;;;;;22.80;28.98;100693.63;4985333;28;20496;-62
2021/05/14 10:00:48;;;;;;;24.65;8.35;;;;;;;23.74;27.56;100698.78;4984111;28;20050;-63
2021/05/14 10:03:20;;;;;;;24.65;8.77;;;;;;;23.90;26.30;100698.88;4985992;28;20034;-63
2021/05/14 10:05:46;;;;;;;;;;;;;;;24.48;29.64;100697.50;4984343;28;20467;-63
2021/05/14 10:08:14;;;;;;;26.90;11.05;;;;;;;24.50;26.78;100695.56;4985862;28;19923;-74
2021/05/14 10:10:40;;;;;;;25.75;9.50;;;;;;;24.00;26.49;100696.56;4982880;28;20475;-69
2021/05/14 10:13:07;;;;;;;28.27;10.05;;;;;;;23.94;26.28;100695.06;4986334;28;20045;-73
2021/05/14 10:15:33;;;;;;;20.98;7.13;;;;;;;24.59;24.96;100685.22;4983012;28;20030;-73
2021/05/14 10:18:01;;;;;;;23.65;9.40;;;;;;;24.25;25.31;100690.69;4985147;28;20118;-71
2021/05/14 10:20:29;;;;;;;28.00;11.50;;;;;;;24.82;25.37;100686.63;5031852;28;20522;-75
2021/05/14 10:22:57;;;;;;;25.77;10.23;;;;;;;26.04;23.82;100691.06;5043350;28;20364;-67
2021/05/14 10:25:34;;;;;;;27.02;11.82;;;;;;;25.81;24.90;100687.03;5043173;28;20033;-73
2021/05/14 10:28:18;;;;;;;27.52;11.13;;;;;;;26.03;25.69;100692.00;5099446;28;20047;-73
2021/05/14 10:31:08;;;;;;;26.25;10.70;;;;;;;27.34;24.09;100677.19;5101472;28;20472;-72
2021/05/14 10:34:05;;;;;;;26.02;9.82;;;;;;;28.22;22.67;100684.59;5061474;28;20134;-70
2021/05/14 10:36:37;;;;;;;27.98;12.75;;;;;;;27.99;21.70;100684.44;5060311;28;20089;-72
2021/05/14 10:39:02;;;;;;;27.55;13.05;;;;;;;27.34;22.58;100673.63;5061537;28;20036;-75
2021/05/14 10:41:28;;;;;;;29.45;12.85;;;;;;;28.07;21.30;100678.44;5063837;28;20033;-73
2021/05/14 10:44:02;;;;;;;28.95;12.18;;;;;;;27.64;21.95;100686.91;5060946;28;20070;-65
2021/05/14 10:46:28;;;;;;;26.05;10.95;;;;;;;27.97;21.04;100686.41;5060254;28;20187;-66
2021/05/14 10:49:05;;;;;;;25.85;11.05;;;;;;;28.66;22.26;100669.66;5063682;28;20059;-74
2021/05/14 10:51:53;;;;;;;25.60;10.35;;;;;;;30.37;20.94;100670.97;5062393;28;20113;-69
2021/05/14 10:54:40;;;;;;;25.80;11.02;;;;;;;30.68;20.50;100671.16;5041320;28;20045;-64
2021/05/14 10:57:06;;;;;;;26.70;12.02;;;;;;;29.00;19.38;100669.81;5061949;28;20040;-63
2021/05/14 10:59:36;;;;;;;29.50;13.50;;;;;;;26.44;23.31;100669.56;5055336;28;20032;-65
2021/05/14 11:02:28;;;;;;;30.23;14.60;;;;;;;23.03;26.90;100667.34;5060231;28;20471;-64
2021/05/14 11:04:55;;;;;;;25.75;9.82;;;;;;;20.83;28.87;100657.59;5060825;28;20495;-64
2021/05/14 11:07:39;;;;;;;24.52;9.82;;;;;;;20.90;30.39;100651.03;5064324;28;20155;-64
2021/05/14 11:10:13;;;;;;;28.08;12.07;;;;;;;22.60;27.74;100646.13;5072363;28;20036;-64
2021/05/14 11:12:44;;;;;;;28.05;12.25;;;;;;;24.68;26.93;100646.88;5105032;28;20129;-64
2021/05/14 11:15:21;;;;;;;30.05;14.02;;;;;;;26.22;23.74;100650.22;5105015;28;20160;-64